PWSweather.com
Personal Weather Stations
Station Observations
KB2SBX
Sugarloaf, Sugarloaf, PA 18249

SugarloafSugarloaf, PA 18249

Lat: 41.0126685, Lon: -76.1082041

Elevation: 1030

Station Type: WS-2080

http://sugarloafpaweather.webng.com/weather.shtml

High Low Average
Temperature 57.0°F13.9°C 45.3°F7.4°C 50.1°F10.1°C
Dew Point 43.2°F6.2°C 29.6°F-1.3°C 38.0°F3.3°C
Winds 5.4 mph 8.7 kmh Calm Calm 1.0 mph S1.6 kmh S
Wind Gusts 13.6 mph21.9 kmh -- 5.0 mph8.0 kmh
Humidity 83% 46% 64%
Pressure 29.93 in1013.5 mb 29.87 in1011.5 mb -
Precipitation 0.01 in0.3 mm - -
Hour Temp Dew Point Humidity Winds Wind Gusts Pressure Precip Precip Rate Daily Precip Total
12:00 AM 45.3°F7.4°C 28.7°F-1.8°C 52% 1.0 mph NE1.6 kmh NE 2.2 mph3.5 kmh 29.95 in1014.2 mb 0.00 in0.0 mm 0.00 in/hr0.0 mm/hr 0.00 in0.0 mm
12:15 AM 45.0°F7.2°C 28.9°F-1.7°C 53% 1.0 mph NE1.6 kmh NE 2.2 mph3.5 kmh 29.94 in1013.9 mb 0.00 in0.0 mm 0.00 in/hr0.0 mm/hr 0.00 in0.0 mm
12:30 AM 45.0°F7.2°C 29.3°F-1.5°C 54% 1.5 mph NE2.4 kmh NE 3.1 mph5.0 kmh 29.94 in1013.9 mb 0.00 in0.0 mm 0.00 in/hr0.0 mm/hr 0.00 in0.0 mm
12:45 AM 45.1°F7.3°C 29.5°F-1.4°C 54% 1.4 mph NE2.3 kmh NE 3.1 mph5.0 kmh 29.94 in1013.9 mb 0.00 in0.0 mm 0.00 in/hr0.0 mm/hr 0.00 in0.0 mm
01:00 AM 45.3°F7.4°C 29.7°F-1.3°C 54% 1.3 mph NE2.1 kmh NE 3.1 mph5.0 kmh 29.93 in1013.5 mb 0.00 in0.0 mm 0.00 in/hr0.0 mm/hr 0.00 in0.0 mm
01:15 AM 45.7°F7.6°C 30.0°F-1.1°C 54% 0.6 mph NE1.0 kmh NE 2.2 mph3.5 kmh 29.93 in1013.5 mb 0.00 in0.0 mm 0.00 in/hr0.0 mm/hr 0.00 in0.0 mm
01:30 AM 46.2°F7.9°C 30.0°F-1.1°C 53% 0.4 mph NE0.6 kmh NE 2.2 mph3.5 kmh 29.93 in1013.5 mb 0.00 in0.0 mm 0.00 in/hr0.0 mm/hr 0.00 in0.0 mm
01:45 AM 46.6°F8.1°C 30.4°F-0.9°C 53% 0.3 mph NE0.5 kmh NE 1.6 mph2.6 kmh 29.93 in1013.5 mb 0.00 in0.0 mm 0.00 in/hr0.0 mm/hr 0.00 in0.0 mm
02:00 AM 46.9°F8.3°C 30.7°F-0.7°C 53% 0.5 mph NNE0.8 kmh NNE 2.2 mph3.5 kmh 29.93 in1013.5 mb 0.00 in0.0 mm 0.00 in/hr0.0 mm/hr 0.00 in0.0 mm
02:15 AM 47.5°F8.6°C 30.7°F-0.7°C 52% 0.4 mph NNE0.6 kmh NNE 3.1 mph5.0 kmh 29.93 in1013.5 mb 0.00 in0.0 mm 0.00 in/hr0.0 mm/hr 0.00 in0.0 mm
02:30 AM 47.7°F8.7°C 30.9°F-0.6°C 52% 0.5 mph NE0.8 kmh NE 2.2 mph3.5 kmh 29.92 in1013.2 mb 0.00 in0.0 mm 0.00 in/hr0.0 mm/hr 0.00 in0.0 mm
02:45 AM 47.5°F8.6°C 30.7°F-0.7°C 52% 1.3 mph NE2.1 kmh NE 3.1 mph5.0 kmh 29.92 in1013.2 mb 0.00 in0.0 mm 0.00 in/hr0.0 mm/hr 0.00 in0.0 mm
03:00 AM 47.8°F8.8°C 31.1°F-0.5°C 52% 1.0 mph NE1.6 kmh NE 3.1 mph5.0 kmh 29.92 in1013.2 mb 0.00 in0.0 mm 0.00 in/hr0.0 mm/hr 0.00 in0.0 mm
03:15 AM 48.0°F8.9°C 31.2°F-0.4°C 52% 0.6 mph NE1.0 kmh NE 2.2 mph3.5 kmh 29.92 in1013.2 mb 0.00 in0.0 mm 0.00 in/hr0.0 mm/hr 0.00 in0.0 mm
03:30 AM 48.9°F9.4°C 30.1°F-1.1°C 48% 0.5 mph NE0.8 kmh NE 2.2 mph3.5 kmh 29.91 in1012.9 mb 0.00 in0.0 mm 0.00 in/hr0.0 mm/hr 0.00 in0.0 mm
03:45 AM 48.9°F9.4°C 30.1°F-1.1°C 48% 0.3 mph NE0.5 kmh NE 1.6 mph2.6 kmh 29.91 in1012.9 mb 0.00 in0.0 mm 0.00 in/hr0.0 mm/hr 0.00 in0.0 mm
04:00 AM 48.9°F9.4°C 30.1°F-1.1°C 48% 0.1 mph NE0.2 kmh NE 1.6 mph2.6 kmh 29.90 in1012.5 mb 0.00 in0.0 mm 0.00 in/hr0.0 mm/hr 0.00 in0.0 mm
04:15 AM 48.9°F9.4°C 29.6°F-1.3°C 47% 0.4 mph NE0.6 kmh NE 2.2 mph3.5 kmh 29.91 in1012.9 mb 0.00 in0.0 mm 0.00 in/hr0.0 mm/hr 0.00 in0.0 mm
04:30 AM 50.4°F10.2°C 30.4°F-0.9°C 46% 2.2 mph S3.5 kmh S 5.4 mph8.7 kmh 29.91 in1012.9 mb 0.00 in0.0 mm 0.00 in/hr0.0 mm/hr 0.00 in0.0 mm
04:45 AM 50.7°F10.4°C 34.7°F1.5°C 54% 0.8 mph SSE1.3 kmh SSE 3.1 mph5.0 kmh 29.91 in1012.9 mb 0.00 in0.0 mm 0.00 in/hr0.0 mm/hr 0.00 in0.0 mm
05:00 AM 49.1°F9.5°C 36.2°F2.3°C 61% 0.4 mph S0.6 kmh S 3.8 mph6.1 kmh 29.90 in1012.5 mb 0.00 in0.0 mm 0.00 in/hr0.0 mm/hr 0.00 in0.0 mm
05:15 AM 48.0°F8.9°C 37.2°F2.9°C 66% 0.5 mph NNW0.8 kmh NNW 5.4 mph8.7 kmh 29.90 in1012.5 mb 0.00 in0.0 mm 0.00 in/hr0.0 mm/hr 0.00 in0.0 mm
05:30 AM 47.3°F8.5°C 38.7°F3.7°C 72% 0.3 mph WSW0.5 kmh WSW 3.1 mph5.0 kmh 29.90 in1012.5 mb 0.01 in0.3 mm 0.04 in/hr1.0 mm/hr 0.01 in0.3 mm
05:45 AM 46.8°F8.2°C 39.3°F4.1°C 75% 0.1 mph N0.2 kmh N 2.2 mph3.5 kmh 29.91 in1012.9 mb 0.01 in0.3 mm 0.00 in/hr0.0 mm/hr 0.01 in0.3 mm
06:00 AM 46.6°F8.1°C 41.1°F5.1°C 81% 1.0 mph S1.6 kmh S 7.6 mph12.2 kmh 29.90 in1012.5 mb 0.01 in0.3 mm 0.00 in/hr0.0 mm/hr 0.01 in0.3 mm
06:15 AM 46.9°F8.3°C 42.1°F5.6°C 83% 1.2 mph SSW1.9 kmh SSW 4.5 mph7.2 kmh 29.90 in1012.5 mb 0.01 in0.3 mm 0.00 in/hr0.0 mm/hr 0.01 in0.3 mm
06:30 AM 46.9°F8.3°C 41.7°F5.4°C 82% 0.4 mph SSE0.6 kmh SSE 3.8 mph6.1 kmh 29.90 in1012.5 mb 0.00 in0.0 mm 0.00 in/hr0.0 mm/hr 0.01 in0.3 mm
06:45 AM 46.9°F8.3°C 41.4°F5.2°C 81% 1.3 mph SW2.1 kmh SW 4.5 mph7.2 kmh 29.89 in1012.2 mb 0.00 in0.0 mm 0.00 in/hr0.0 mm/hr 0.01 in0.3 mm
07:00 AM 47.1°F8.4°C 40.9°F4.9°C 79% 0.3 mph S0.5 kmh S 2.2 mph3.5 kmh 29.89 in1012.2 mb 0.00 in0.0 mm 0.00 in/hr0.0 mm/hr 0.01 in0.3 mm
07:15 AM 47.5°F8.6°C 41.0°F5.0°C 78% 0.3 mph SSW0.5 kmh SSW 3.1 mph5.0 kmh 29.90 in1012.5 mb 0.00 in0.0 mm 0.00 in/hr0.0 mm/hr 0.01 in0.3 mm
07:30 AM 47.7°F8.7°C 40.8°F4.9°C 77% 0.2 mph SE0.3 kmh SE 1.6 mph2.6 kmh 29.89 in1012.2 mb 0.00 in0.0 mm 0.00 in/hr0.0 mm/hr 0.01 in0.3 mm
07:45 AM 47.5°F8.6°C 40.3°F4.6°C 76% 0.2 mph S0.3 kmh S 3.1 mph5.0 kmh 29.89 in1012.2 mb 0.00 in0.0 mm 0.00 in/hr0.0 mm/hr 0.01 in0.3 mm
08:00 AM 47.1°F8.4°C 40.0°F4.4°C 76% Calm Calm 1.6 mph2.6 kmh 29.90 in1012.5 mb 0.00 in0.0 mm 0.00 in/hr0.0 mm/hr 0.01 in0.3 mm
08:15 AM 46.9°F8.3°C 40.1°F4.5°C 77% 0.3 mph SW0.5 kmh SW 3.8 mph6.1 kmh 29.90 in1012.5 mb 0.00 in0.0 mm 0.00 in/hr0.0 mm/hr 0.01 in0.3 mm
08:30 AM 46.4°F8.0°C 39.6°F4.2°C 77% Calm Calm 1.6 mph2.6 kmh 29.90 in1012.5 mb 0.00 in0.0 mm 0.00 in/hr0.0 mm/hr 0.01 in0.3 mm
08:45 AM 46.4°F8.0°C 39.9°F4.4°C 78% Calm Calm 0.7 mph1.1 kmh 29.90 in1012.5 mb 0.00 in0.0 mm 0.00 in/hr0.0 mm/hr 0.01 in0.3 mm
09:00 AM 46.8°F8.2°C 40.3°F4.6°C 78% 0.3 mph NW0.5 kmh NW 3.1 mph5.0 kmh 29.91 in1012.9 mb 0.00 in0.0 mm 0.00 in/hr0.0 mm/hr 0.01 in0.3 mm
09:15 AM 47.3°F8.5°C 40.5°F4.7°C 77% 0.1 mph SE0.2 kmh SE 2.2 mph3.5 kmh 29.91 in1012.9 mb 0.00 in0.0 mm 0.00 in/hr0.0 mm/hr 0.01 in0.3 mm
09:30 AM 47.7°F8.7°C 40.5°F4.7°C 76% 0.4 mph S0.6 kmh S 2.2 mph3.5 kmh 29.91 in1012.9 mb 0.00 in0.0 mm 0.00 in/hr0.0 mm/hr 0.01 in0.3 mm
09:45 AM 47.8°F8.8°C 40.6°F4.8°C 76% 0.4 mph SSW0.6 kmh SSW 3.8 mph6.1 kmh 29.91 in1012.9 mb 0.00 in0.0 mm 0.00 in/hr0.0 mm/hr 0.01 in0.3 mm
10:00 AM 48.2°F9.0°C 40.7°F4.8°C 75% 0.1 mph SE0.2 kmh SE 2.2 mph3.5 kmh 29.90 in1012.5 mb 0.00 in0.0 mm 0.00 in/hr0.0 mm/hr 0.01 in0.3 mm
10:15 AM 48.2°F9.0°C 41.0°F5.0°C 76% Calm Calm 1.6 mph2.6 kmh 29.90 in1012.5 mb 0.00 in0.0 mm 0.00 in/hr0.0 mm/hr 0.01 in0.3 mm
10:30 AM 47.8°F8.8°C 41.6°F5.3°C 79% 0.4 mph NW0.6 kmh NW 3.8 mph6.1 kmh 29.91 in1012.9 mb 0.00 in0.0 mm 0.00 in/hr0.0 mm/hr 0.01 in0.3 mm
10:45 AM 48.7°F9.3°C 41.5°F5.3°C 76% 0.3 mph S0.5 kmh S 3.1 mph5.0 kmh 29.91 in1012.9 mb 0.00 in0.0 mm 0.00 in/hr0.0 mm/hr 0.01 in0.3 mm
11:00 AM 49.3°F9.6°C 42.0°F5.6°C 76% 0.8 mph SSW1.3 kmh SSW 5.4 mph8.7 kmh 29.91 in1012.9 mb 0.00 in0.0 mm 0.00 in/hr0.0 mm/hr 0.01 in0.3 mm
11:15 AM 49.8°F9.9°C 42.2°F5.7°C 75% 0.3 mph WSW0.5 kmh WSW 3.1 mph5.0 kmh 29.90 in1012.5 mb 0.00 in0.0 mm 0.00 in/hr0.0 mm/hr 0.01 in0.3 mm
11:30 AM 50.5°F10.3°C 42.2°F5.7°C 73% 1.5 mph W2.4 kmh W 6.9 mph11.1 kmh 29.91 in1012.9 mb 0.00 in0.0 mm 0.00 in/hr0.0 mm/hr 0.01 in0.3 mm
11:45 AM 51.1°F10.6°C 42.7°F5.9°C 73% 1.7 mph SW2.7 kmh SW 4.5 mph7.2 kmh 29.90 in1012.5 mb 0.00 in0.0 mm 0.00 in/hr0.0 mm/hr 0.01 in0.3 mm
12:00 PM 51.8°F11.0°C 42.7°F5.9°C 71% 1.7 mph SSW2.7 kmh SSW 6.0 mph9.7 kmh 29.89 in1012.2 mb 0.00 in0.0 mm 0.00 in/hr0.0 mm/hr 0.01 in0.3 mm
12:15 PM 52.2°F11.2°C 42.7°F5.9°C 70% 1.9 mph WNW3.1 kmh WNW 7.6 mph12.2 kmh 29.89 in1012.2 mb 0.00 in0.0 mm 0.00 in/hr0.0 mm/hr 0.01 in0.3 mm
12:30 PM 52.2°F11.2°C 42.3°F5.7°C 69% 2.7 mph WNW4.3 kmh WNW 9.2 mph14.8 kmh 29.90 in1012.5 mb 0.00 in0.0 mm 0.00 in/hr0.0 mm/hr 0.01 in0.3 mm
12:45 PM 51.8°F11.0°C 42.0°F5.6°C 69% 2.0 mph WSW3.2 kmh WSW 8.3 mph13.4 kmh 29.89 in1012.2 mb 0.00 in0.0 mm 0.00 in/hr0.0 mm/hr 0.01 in0.3 mm
01:00 PM 51.8°F11.0°C 42.3°F5.7°C 70% 3.6 mph W5.8 kmh W 13.6 mph21.9 kmh 29.89 in1012.2 mb 0.00 in0.0 mm 0.00 in/hr0.0 mm/hr 0.01 in0.3 mm
01:15 PM 52.3°F11.3°C 42.9°F6.1°C 70% 2.9 mph WNW4.7 kmh WNW 9.2 mph14.8 kmh 29.89 in1012.2 mb 0.00 in0.0 mm 0.00 in/hr0.0 mm/hr 0.01 in0.3 mm
01:30 PM 53.1°F11.7°C 43.2°F6.2°C 69% 2.4 mph W3.9 kmh W 9.2 mph14.8 kmh 29.89 in1012.2 mb 0.00 in0.0 mm 0.00 in/hr0.0 mm/hr 0.01 in0.3 mm
01:45 PM 53.4°F11.9°C 42.7°F5.9°C 67% 3.6 mph NW5.8 kmh NW 13.0 mph20.9 kmh 29.88 in1011.9 mb 0.00 in0.0 mm 0.00 in/hr0.0 mm/hr 0.01 in0.3 mm
02:00 PM 54.7°F12.6°C 42.3°F5.7°C 63% 3.5 mph NW5.6 kmh NW 9.2 mph14.8 kmh 29.88 in1011.9 mb 0.00 in0.0 mm 0.00 in/hr0.0 mm/hr 0.01 in0.3 mm
02:15 PM 54.7°F12.6°C 41.9°F5.5°C 62% 3.7 mph NW6.0 kmh NW 10.7 mph17.2 kmh 29.88 in1011.9 mb 0.00 in0.0 mm 0.00 in/hr0.0 mm/hr 0.01 in0.3 mm
02:30 PM 54.3°F12.4°C 40.7°F4.8°C 60% 4.1 mph WSW6.6 kmh WSW 13.0 mph20.9 kmh 29.88 in1011.9 mb 0.00 in0.0 mm 0.00 in/hr0.0 mm/hr 0.01 in0.3 mm
02:45 PM 54.3°F12.4°C 40.3°F4.6°C 59% 4.1 mph WSW6.6 kmh WSW 12.1 mph19.5 kmh 29.87 in1011.5 mb 0.00 in0.0 mm 0.00 in/hr0.0 mm/hr 0.01 in0.3 mm
03:00 PM 56.1°F13.4°C 41.6°F5.3°C 58% 4.5 mph W7.2 kmh W 13.0 mph20.9 kmh 29.87 in1011.5 mb 0.00 in0.0 mm 0.00 in/hr0.0 mm/hr 0.01 in0.3 mm
03:15 PM 55.9°F13.3°C 39.5°F4.2°C 54% 4.1 mph WSW6.6 kmh WSW 13.0 mph20.9 kmh 29.88 in1011.9 mb 0.01 in0.3 mm 0.04 in/hr1.0 mm/hr 0.01 in0.3 mm
03:30 PM 57.0°F13.9°C 40.1°F4.5°C 53% 4.8 mph WSW7.7 kmh WSW 9.8 mph15.8 kmh 29.88 in1011.9 mb 0.01 in0.3 mm 0.00 in/hr0.0 mm/hr 0.01 in0.3 mm
03:45 PM 56.3°F13.5°C 39.4°F4.1°C 53% 5.4 mph WSW8.7 kmh WSW 13.0 mph20.9 kmh 29.88 in1011.9 mb 0.01 in0.3 mm 0.00 in/hr0.0 mm/hr 0.01 in0.3 mm
04:00 PM 56.5°F13.6°C 39.6°F4.2°C 53% 3.8 mph WSW6.1 kmh WSW 9.8 mph15.8 kmh 29.87 in1011.5 mb 0.01 in0.3 mm 0.00 in/hr0.0 mm/hr 0.01 in0.3 mm
04:15 PM 56.7°F13.7°C 39.2°F4.0°C 52% 3.4 mph WSW5.5 kmh WSW 13.6 mph21.9 kmh 29.88 in1011.9 mb 0.00 in0.0 mm 0.00 in/hr0.0 mm/hr 0.01 in0.3 mm
04:30 PM 56.1°F13.4°C 38.7°F3.7°C 52% 3.3 mph W5.3 kmh W 8.3 mph13.4 kmh 29.88 in1011.9 mb 0.00 in0.0 mm 0.00 in/hr0.0 mm/hr 0.01 in0.3 mm
04:45 PM 55.8°F13.2°C 37.9°F3.3°C 51% 3.5 mph WNW5.6 kmh WNW 10.7 mph17.2 kmh 29.88 in1011.9 mb 0.00 in0.0 mm 0.00 in/hr0.0 mm/hr 0.01 in0.3 mm
05:00 PM 54.9°F12.7°C 37.1°F2.8°C 51% 3.7 mph S6.0 kmh S 9.8 mph15.8 kmh 29.88 in1011.9 mb 0.00 in0.0 mm 0.00 in/hr0.0 mm/hr 0.01 in0.3 mm
05:15 PM 54.7°F12.6°C 36.9°F2.7°C 51% 3.6 mph NW5.8 kmh NW 10.7 mph17.2 kmh 29.89 in1012.2 mb 0.00 in0.0 mm 0.00 in/hr0.0 mm/hr 0.01 in0.3 mm
05:30 PM 54.3°F12.4°C 36.6°F2.6°C 51% 2.5 mph WNW4.0 kmh WNW 6.0 mph9.7 kmh 29.89 in1012.2 mb 0.00 in0.0 mm 0.00 in/hr0.0 mm/hr 0.01 in0.3 mm
05:45 PM 53.8°F12.1°C 36.6°F2.6°C 52% 2.2 mph NW3.5 kmh NW 7.6 mph12.2 kmh 29.90 in1012.5 mb 0.00 in0.0 mm 0.00 in/hr0.0 mm/hr 0.01 in0.3 mm
06:00 PM 52.9°F11.6°C 37.2°F2.9°C 55% 1.0 mph NW1.6 kmh NW 4.5 mph7.2 kmh 29.90 in1012.5 mb 0.00 in0.0 mm 0.00 in/hr0.0 mm/hr 0.01 in0.3 mm
06:15 PM 52.0°F11.1°C 36.8°F2.7°C 56% 0.5 mph SW0.8 kmh SW 2.2 mph3.5 kmh 29.91 in1012.9 mb 0.00 in0.0 mm 0.00 in/hr0.0 mm/hr 0.01 in0.3 mm
06:30 PM 51.1°F10.6°C 36.8°F2.7°C 58% 0.1 mph S0.2 kmh S 1.6 mph2.6 kmh 29.91 in1012.9 mb 0.00 in0.0 mm 0.00 in/hr0.0 mm/hr 0.01 in0.3 mm
06:45 PM 49.6°F9.8°C 36.8°F2.7°C 61% Calm Calm 1.6 mph2.6 kmh 29.92 in1013.2 mb 0.00 in0.0 mm 0.00 in/hr0.0 mm/hr 0.01 in0.3 mm
07:00 PM 48.6°F9.2°C 36.1°F2.3°C 62% 0.4 mph S0.6 kmh S 1.6 mph2.6 kmh 29.92 in1013.2 mb 0.00 in0.0 mm 0.00 in/hr0.0 mm/hr 0.01 in0.3 mm
07:15 PM 47.3°F8.5°C 35.8°F2.1°C 64% Calm Calm -- 29.93 in1013.5 mb 0.00 in0.0 mm 0.00 in/hr0.0 mm/hr 0.01 in0.3 mm
07:30 PM 46.9°F8.3°C 35.4°F1.9°C 64% Calm Calm 1.6 mph2.6 kmh 29.93 in1013.5 mb 0.00 in0.0 mm 0.00 in/hr0.0 mm/hr 0.01 in0.3 mm
07:45 PM 46.0°F7.8°C 35.7°F2.1°C 67% 0.5 mph NE0.8 kmh NE 2.2 mph3.5 kmh 29.93 in1013.5 mb 0.00 in0.0 mm 0.00 in/hr0.0 mm/hr 0.01 in0.3 mm
08:00 PM 45.1°F7.3°C 35.2°F1.8°C 68% 0.7 mph NE1.1 kmh NE 2.2 mph3.5 kmh 29.94 in1013.9 mb 0.00 in0.0 mm 0.00 in/hr0.0 mm/hr 0.01 in0.3 mm
08:15 PM 44.6°F7.0°C 35.1°F1.7°C 69% 0.2 mph NE0.3 kmh NE 1.6 mph2.6 kmh 29.94 in1013.9 mb 0.00 in0.0 mm 0.00 in/hr0.0 mm/hr 0.01 in0.3 mm
08:30 PM 44.2°F6.8°C 35.4°F1.9°C 71% Calm Calm 0.7 mph1.1 kmh 29.94 in1013.9 mb 0.00 in0.0 mm 0.00 in/hr0.0 mm/hr 0.01 in0.3 mm
08:45 PM 44.1°F6.7°C 35.6°F2.0°C 72% 0.7 mph N1.1 kmh N 1.6 mph2.6 kmh 29.94 in1013.9 mb 0.00 in0.0 mm 0.00 in/hr0.0 mm/hr 0.01 in0.3 mm
09:00 PM 43.7°F6.5°C 35.3°F1.8°C 72% 1.2 mph NNE1.9 kmh NNE 2.2 mph3.5 kmh 29.94 in1013.9 mb 0.00 in0.0 mm 0.00 in/hr0.0 mm/hr 0.01 in0.3 mm
09:15 PM 43.3°F6.3°C 35.3°F1.8°C 73% Calm Calm 1.6 mph2.6 kmh 29.94 in1013.9 mb 0.00 in0.0 mm 0.00 in/hr0.0 mm/hr 0.01 in0.3 mm
09:30 PM 43.7°F6.5°C 35.6°F2.0°C 73% Calm Calm -- 29.94 in1013.9 mb 0.00 in0.0 mm 0.00 in/hr0.0 mm/hr 0.01 in0.3 mm
09:45 PM 43.2°F6.2°C 35.1°F1.7°C 73% Calm Calm -- 29.95 in1014.2 mb 0.00 in0.0 mm 0.00 in/hr0.0 mm/hr 0.01 in0.3 mm
10:00 PM 43.5°F6.4°C 35.5°F1.9°C 73% 0.8 mph NE1.3 kmh NE 2.2 mph3.5 kmh 29.95 in1014.2 mb 0.00 in0.0 mm 0.00 in/hr0.0 mm/hr 0.01 in0.3 mm
10:15 PM 46.2°F7.9°C 37.3°F2.9°C 71% 2.7 mph N4.3 kmh N 5.4 mph8.7 kmh 29.96 in1014.6 mb 0.00 in0.0 mm 0.00 in/hr0.0 mm/hr 0.01 in0.3 mm
10:30 PM 46.4°F8.0°C 36.8°F2.7°C 69% 2.0 mph N3.2 kmh N 3.8 mph6.1 kmh 29.97 in1014.9 mb 0.00 in0.0 mm 0.00 in/hr0.0 mm/hr 0.01 in0.3 mm
10:45 PM 45.9°F7.7°C 35.9°F2.2°C 68% 1.1 mph N1.8 kmh N 3.1 mph5.0 kmh 29.97 in1014.9 mb 0.00 in0.0 mm 0.00 in/hr0.0 mm/hr 0.01 in0.3 mm
11:00 PM 45.5°F7.5°C 35.6°F2.0°C 68% 1.9 mph N3.1 kmh N 4.5 mph7.2 kmh 29.97 in1014.9 mb 0.00 in0.0 mm 0.00 in/hr0.0 mm/hr 0.01 in0.3 mm
11:15 PM 45.5°F7.5°C 35.6°F2.0°C 68% 1.2 mph NNW1.9 kmh NNW 3.8 mph6.1 kmh 29.97 in1014.9 mb 0.00 in0.0 mm 0.00 in/hr0.0 mm/hr 0.01 in0.3 mm
11:30 PM 44.4°F6.9°C 34.9°F1.6°C 69% 0.5 mph N0.8 kmh N 3.1 mph5.0 kmh 29.98 in1015.2 mb 0.00 in0.0 mm 0.00 in/hr0.0 mm/hr 0.01 in0.3 mm
11:45 PM 44.4°F6.9°C 34.9°F1.6°C 69% 0.7 mph NNW1.1 kmh NNW 6.0 mph9.7 kmh 29.98 in1015.2 mb 0.00 in0.0 mm 0.00 in/hr0.0 mm/hr 0.01 in0.3 mm